createdAt,value
2018-10-07T00:00:03.691Z,8.60
2018-10-07T00:02:32.187Z,6.77
2018-10-07T00:05:00.623Z,8.37
2018-10-07T00:07:29.138Z,7.63
2018-10-07T00:09:57.904Z,7.70
2018-10-07T00:12:26.387Z,7.80
2018-10-07T00:14:55.172Z,8.70
2018-10-07T00:17:23.664Z,7.50
2018-10-07T00:19:52.399Z,7.67
2018-10-07T00:22:20.838Z,7.47
2018-10-07T00:24:49.322Z,8.43
2018-10-07T00:27:18.074Z,7.83
2018-10-07T00:29:46.561Z,8.30
2018-10-07T00:32:15.839Z,8.20
2018-10-07T00:34:45.713Z,8.13
2018-10-07T00:37:14.464Z,8.07
2018-10-07T00:39:43.406Z,8.43
2018-10-07T00:42:13.309Z,6.80
2018-10-07T00:44:42.225Z,7.70
2018-10-07T00:47:10.914Z,7.53
2018-10-07T00:49:39.350Z,9.23
2018-10-07T00:52:07.815Z,7.47
2018-10-07T00:54:36.594Z,8.57
2018-10-07T00:57:05.369Z,7.97
2018-10-07T00:59:33.801Z,8.27
2018-10-07T01:02:02.579Z,8.20
2018-10-07T01:04:31.088Z,7.60
2018-10-07T01:06:59.564Z,7.43
2018-10-07T01:09:28.000Z,7.70
2018-10-07T01:11:56.727Z,8.73
2018-10-07T01:14:25.195Z,6.93
2018-10-07T01:16:53.619Z,7.80
2018-10-07T01:19:22.774Z,8.33
2018-10-07T01:21:51.205Z,9.07
2018-10-07T01:24:19.966Z,8.10
2018-10-07T01:26:48.455Z,8.80
2018-10-07T01:29:16.927Z,8.40
2018-10-07T01:31:45.372Z,8.90
2018-10-07T01:34:14.127Z,8.47
2018-10-07T01:36:42.558Z,8.63
2018-10-07T01:39:11.722Z,8.67
2018-10-07T01:41:40.561Z,7.77
2018-10-07T01:44:09.295Z,8.33
2018-10-07T01:46:38.024Z,8.90
2018-10-07T01:49:06.555Z,9.10
2018-10-07T01:51:34.989Z,8.77
2018-10-07T01:54:03.493Z,8.40
2018-10-07T01:56:31.930Z,8.30
2018-10-07T01:59:00.430Z,8.07
2018-10-07T02:01:28.845Z,7.37
2018-10-07T02:03:57.593Z,7.80
2018-10-07T02:06:26.019Z,8.63
2018-10-07T02:08:54.698Z,8.63
2018-10-07T02:11:23.147Z,7.90
2018-10-07T02:13:51.629Z,9.80
2018-10-07T02:16:20.137Z,8.50
2018-10-07T02:18:48.594Z,8.50
2018-10-07T02:21:17.046Z,8.70
2018-10-07T02:23:45.542Z,8.40
2018-10-07T02:26:14.000Z,9.20
2018-10-07T02:28:42.478Z,8.83
2018-10-07T02:31:10.886Z,8.63
2018-10-07T02:33:39.371Z,8.73
2018-10-07T02:36:07.799Z,8.47
2018-10-07T02:38:36.302Z,8.70
2018-10-07T02:41:04.764Z,10.00
2018-10-07T02:43:33.458Z,9.20
2018-10-07T02:46:01.906Z,8.20
2018-10-07T02:48:30.480Z,8.83
2018-10-07T02:50:59.047Z,8.63
2018-10-07T02:53:27.634Z,9.20
2018-10-07T02:55:56.056Z,8.90
2018-10-07T02:58:24.657Z,9.43
2018-10-07T03:00:53.144Z,9.37
2018-10-07T03:03:21.637Z,8.83
2018-10-07T03:05:50.384Z,8.73
2018-10-07T03:08:18.835Z,8.90
2018-10-07T03:10:47.287Z,8.87
2018-10-07T03:13:16.127Z,8.50
2018-10-07T03:15:44.563Z,9.50
2018-10-07T03:18:13.295Z,8.53
2018-10-07T03:20:42.310Z,8.63
2018-10-07T03:23:10.791Z,8.93
2018-10-07T03:25:39.559Z,10.37
2018-10-07T03:28:07.983Z,8.13
2018-10-07T03:30:36.442Z,9.10
2018-10-07T03:33:04.919Z,9.00
2018-10-07T03:35:33.387Z,8.13
2018-10-07T03:38:01.820Z,9.07
2018-10-07T03:40:30.551Z,8.40
2018-10-07T03:42:59.022Z,8.17
2018-10-07T03:45:27.598Z,8.70
2018-10-07T03:47:56.364Z,8.23
2018-10-07T03:50:27.638Z,8.23
2018-10-07T03:52:56.077Z,8.77
2018-10-07T03:55:24.522Z,8.30
2018-10-07T03:57:52.986Z,8.37
2018-10-07T04:00:21.726Z,8.37
2018-10-07T04:02:50.236Z,8.03
2018-10-07T04:05:18.750Z,7.47
2018-10-07T04:07:47.282Z,7.93
2018-10-07T04:10:15.741Z,7.83
2018-10-07T04:12:44.354Z,8.30
2018-10-07T04:15:13.650Z,7.60
2018-10-07T04:17:42.083Z,9.27
2018-10-07T04:20:10.599Z,9.50
2018-10-07T04:22:39.034Z,9.47
2018-10-07T04:25:07.899Z,9.07
2018-10-07T04:27:36.691Z,8.70
2018-10-07T04:30:05.178Z,9.17
2018-10-07T04:32:33.623Z,8.57
2018-10-07T04:35:02.360Z,8.67
2018-10-07T04:37:31.107Z,8.70
2018-10-07T04:39:59.949Z,8.63
2018-10-07T04:42:28.309Z,8.50
2018-10-07T04:44:57.092Z,8.80
2018-10-07T04:47:25.770Z,9.40
2018-10-07T04:49:54.219Z,8.40
2018-10-07T04:52:22.901Z,8.63
2018-10-07T04:54:51.352Z,8.47
2018-10-07T04:57:19.823Z,7.73
2018-10-07T04:59:48.341Z,8.57
2018-10-07T05:02:16.813Z,8.77
2018-10-07T05:04:45.321Z,8.87
2018-10-07T05:07:13.806Z,9.10
2018-10-07T05:09:42.330Z,7.90
2018-10-07T05:12:10.910Z,9.30
2018-10-07T05:14:40.039Z,8.63
2018-10-07T05:17:09.398Z,8.83
2018-10-07T05:19:37.878Z,8.80
2018-10-07T05:22:06.386Z,8.20
2018-10-07T05:24:34.992Z,8.27
2018-10-07T05:27:03.433Z,7.97
2018-10-07T05:29:31.931Z,9.03
2018-10-07T05:32:00.881Z,8.93
2018-10-07T05:34:29.667Z,8.50
2018-10-07T05:36:58.100Z,8.70
2018-10-07T05:39:27.405Z,9.77
2018-10-07T05:41:55.805Z,8.83
2018-10-07T05:44:24.352Z,9.67
2018-10-07T05:46:53.557Z,9.03
2018-10-07T05:49:21.982Z,9.50
2018-10-07T05:51:50.433Z,10.13
2018-10-07T05:54:18.890Z,10.30
2018-10-07T05:56:47.310Z,9.60
2018-10-07T05:59:15.842Z,9.33
2018-10-07T06:01:45.464Z,9.80
2018-10-07T06:04:24.668Z,10.70
2018-10-07T06:06:54.803Z,12.27
2018-10-07T06:09:26.312Z,12.10
2018-10-07T06:11:55.352Z,11.20
2018-10-07T06:14:35.111Z,12.03
2018-10-07T06:17:04.258Z,11.67
2018-10-07T06:19:32.874Z,13.07
2018-10-07T06:22:02.862Z,12.60
2018-10-07T06:24:31.890Z,13.80
2018-10-07T06:27:00.326Z,13.10
2018-10-07T06:29:29.050Z,13.27
2018-10-07T06:31:57.491Z,13.07
2018-10-07T06:34:26.274Z,12.63
2018-10-07T06:36:54.747Z,12.60
2018-10-07T06:39:23.955Z,13.83
2018-10-07T06:41:52.965Z,12.63
2018-10-07T06:44:22.191Z,12.33
2018-10-07T06:46:50.663Z,12.90
2018-10-07T06:49:19.415Z,13.47
2018-10-07T06:51:47.944Z,13.73
2018-10-07T06:54:16.385Z,15.17
2018-10-07T06:56:45.326Z,15.10
2018-10-07T06:59:14.015Z,16.00
2018-10-07T07:01:42.442Z,15.87
2018-10-07T07:04:11.179Z,16.30
2018-10-07T07:06:40.227Z,15.83
2018-10-07T07:09:09.898Z,16.67
2018-10-07T07:11:38.403Z,16.73
2018-10-07T07:14:06.900Z,16.77
2018-10-07T07:16:35.613Z,17.60
2018-10-07T07:19:04.037Z,16.40
2018-10-07T07:21:32.518Z,15.63
2018-10-07T07:24:01.046Z,16.80
2018-10-07T07:26:29.545Z,17.53
2018-10-07T07:28:57.980Z,16.30
2018-10-07T07:31:26.770Z,16.20
2018-10-07T07:33:55.446Z,17.07
2018-10-07T07:36:23.871Z,17.50
2018-10-07T07:38:52.288Z,16.67
2018-10-07T07:41:20.758Z,18.37
2018-10-07T07:43:49.205Z,19.00
2018-10-07T07:46:17.944Z,19.70
2018-10-07T07:48:46.487Z,19.47
2018-10-07T07:51:15.261Z,21.57
2018-10-07T07:53:43.710Z,23.20
2018-10-07T07:56:12.203Z,25.20
2018-10-07T07:58:40.627Z,23.47
2018-10-07T08:01:09.170Z,26.10
2018-10-07T08:03:37.725Z,26.13
2018-10-07T08:06:06.203Z,24.53
2018-10-07T08:08:34.682Z,25.50
2018-10-07T08:11:03.443Z,26.20
2018-10-07T08:13:31.899Z,25.93
2018-10-07T08:16:01.158Z,26.13
2018-10-07T08:18:29.685Z,27.70
2018-10-07T08:20:58.121Z,26.13
2018-10-07T08:23:26.673Z,29.03
2018-10-07T08:25:55.090Z,28.40
2018-10-07T08:28:23.970Z,29.00
2018-10-07T08:30:52.639Z,30.20
2018-10-07T08:33:21.117Z,30.67
2018-10-07T08:35:49.643Z,33.80
2018-10-07T08:38:18.119Z,31.80
2018-10-07T08:40:46.583Z,30.73
2018-10-07T08:43:15.506Z,34.40
2018-10-07T08:45:44.247Z,35.63
2018-10-07T08:48:12.935Z,34.20
2018-10-07T08:50:41.605Z,33.13
2018-10-07T08:53:10.295Z,36.57
2018-10-07T08:55:39.028Z,32.93
2018-10-07T08:58:07.478Z,33.50
2018-10-07T09:00:36.184Z,32.97
2018-10-07T09:03:04.629Z,32.83
2018-10-07T09:05:33.889Z,32.57
2018-10-07T09:08:02.947Z,33.17
2018-10-07T09:10:31.356Z,33.13
2018-10-07T09:12:59.767Z,34.53
2018-10-07T09:15:28.585Z,31.60
2018-10-07T09:17:57.287Z,32.37
2018-10-07T09:20:25.718Z,33.03
2018-10-07T09:22:54.146Z,30.33
2018-10-07T09:25:22.595Z,30.00
2018-10-07T09:27:53.062Z,28.87
2018-10-07T09:30:21.785Z,29.30
2018-10-07T09:32:50.240Z,28.67
2018-10-07T09:35:18.683Z,26.50
2018-10-07T09:37:47.426Z,27.97
2018-10-07T09:40:16.048Z,27.20
2018-10-07T09:42:45.336Z,28.93
2018-10-07T09:45:14.315Z,29.30
2018-10-07T09:47:42.793Z,28.27
2018-10-07T09:50:11.791Z,29.00
2018-10-07T09:52:40.243Z,28.47
2018-10-07T09:55:08.763Z,28.73
2018-10-07T09:57:37.198Z,27.90
2018-10-07T10:00:07.020Z,27.40
2018-10-07T10:02:35.681Z,27.97
2018-10-07T10:05:05.719Z,28.47
2018-10-07T10:07:34.189Z,28.37
2018-10-07T10:10:02.708Z,32.97
2018-10-07T10:12:31.133Z,29.97
2018-10-07T10:14:59.645Z,29.23
2018-10-07T10:17:28.426Z,28.40
2018-10-07T10:20:06.376Z,30.97
2018-10-07T10:22:43.518Z,29.20
2018-10-07T10:25:22.510Z,27.13
2018-10-07T10:29:03.929Z,27.40
2018-10-07T10:31:42.851Z,27.70
2018-10-07T10:34:14.602Z,25.80
2018-10-07T10:36:54.543Z,25.17
2018-10-07T10:39:55.547Z,25.07
2018-10-07T10:43:01.521Z,23.07
2018-10-07T10:45:32.754Z,22.50
2018-10-07T10:48:13.142Z,25.70
2018-10-07T10:52:53.958Z,23.60
2018-10-07T10:55:49.493Z,21.47
2018-10-07T10:58:38.352Z,21.63
2018-10-07T11:01:16.413Z,21.40
2018-10-07T11:03:56.716Z,21.17
2018-10-07T11:06:36.162Z,19.20
2018-10-07T11:09:08.545Z,18.30
2018-10-07T11:11:53.493Z,19.70
2018-10-07T11:14:27.497Z,17.33
2018-10-07T11:17:28.139Z,17.07
2018-10-07T11:20:04.426Z,18.50
2018-10-07T11:22:41.786Z,17.43
2018-10-07T11:25:17.763Z,14.83
2018-10-07T11:30:00.407Z,14.20
2018-10-07T11:32:37.410Z,17.43
2018-10-07T11:35:40.679Z,16.70
2018-10-07T11:38:25.270Z,15.93
2018-10-07T11:41:06.970Z,16.53
2018-10-07T11:43:47.479Z,16.50
2018-10-07T11:46:40.143Z,16.00
2018-10-07T11:49:13.013Z,14.30
2018-10-07T11:51:50.678Z,15.20
2018-10-07T11:54:24.428Z,15.30
2018-10-07T11:56:52.912Z,14.93
2018-10-07T11:59:21.841Z,15.47
2018-10-07T12:01:50.290Z,15.03
2018-10-07T12:04:18.731Z,12.93
2018-10-07T12:06:47.214Z,10.97
2018-10-07T12:09:15.658Z,13.30
2018-10-07T12:11:44.156Z,13.63
2018-10-07T12:14:12.597Z,9.43
2018-10-07T12:16:41.083Z,15.93
2018-10-07T12:19:09.559Z,16.97
2018-10-07T12:21:38.016Z,11.47
2018-10-07T12:24:06.496Z,8.80
2018-10-07T12:26:34.976Z,7.90
2018-10-07T12:29:04.070Z,8.80
2018-10-07T12:31:32.531Z,6.90
2018-10-07T12:34:00.943Z,7.23
2018-10-07T12:36:29.624Z,6.70
2018-10-07T12:38:58.052Z,7.00
2018-10-07T12:41:26.498Z,6.90
2018-10-07T12:43:55.213Z,6.60
2018-10-07T12:46:23.622Z,7.97
2018-10-07T12:48:52.166Z,7.47
2018-10-07T12:51:20.757Z,8.07
2018-10-07T12:53:49.289Z,8.33
2018-10-07T12:56:17.733Z,7.90
2018-10-07T12:58:46.203Z,7.20
2018-10-07T13:01:15.135Z,8.33
2018-10-07T13:03:43.646Z,8.30
2018-10-07T13:06:12.062Z,8.87
2018-10-07T13:08:40.791Z,8.97
2018-10-07T13:11:09.234Z,8.83
2018-10-07T13:13:37.705Z,10.00
2018-10-07T13:16:06.210Z,10.87
2018-10-07T13:18:34.666Z,10.30
2018-10-07T13:21:03.161Z,10.60
2018-10-07T13:23:32.362Z,10.90
2018-10-07T13:26:01.363Z,11.17
2018-10-07T13:28:29.827Z,10.57
2018-10-07T13:30:58.318Z,12.03
2018-10-07T13:33:26.831Z,11.17
2018-10-07T13:35:55.631Z,11.67
2018-10-07T13:38:24.646Z,10.80
2018-10-07T13:40:53.131Z,11.00
2018-10-07T13:43:23.491Z,11.70
2018-10-07T13:45:52.094Z,11.53
2018-10-07T13:48:20.720Z,11.70
2018-10-07T13:50:49.171Z,12.20
2018-10-07T13:53:17.864Z,12.20
2018-10-07T13:55:46.335Z,11.87
2018-10-07T13:58:15.318Z,10.03
2018-10-07T14:00:44.049Z,11.10
2018-10-07T14:03:12.486Z,10.27
2018-10-07T14:05:40.976Z,10.40
2018-10-07T14:08:09.422Z,11.20
2018-10-07T14:10:39.060Z,10.70
2018-10-07T14:13:07.507Z,11.43
2018-10-07T14:15:38.597Z,9.50
2018-10-07T14:18:07.330Z,9.33
2018-10-07T14:20:35.786Z,9.23
2018-10-07T14:23:04.212Z,8.73
2018-10-07T14:25:32.995Z,9.50
2018-10-07T14:28:01.444Z,9.07
2018-10-07T14:30:29.925Z,9.00
2018-10-07T14:32:58.345Z,9.10
2018-10-07T14:35:26.802Z,7.73
2018-10-07T14:37:55.854Z,7.57
2018-10-07T14:40:24.321Z,6.80
2018-10-07T14:42:52.770Z,7.47
2018-10-07T14:45:21.226Z,7.90
2018-10-07T14:47:49.665Z,6.80
2018-10-07T14:50:18.141Z,6.90
2018-10-07T14:52:46.572Z,6.53
2018-10-07T14:55:15.108Z,5.50
2018-10-07T14:57:43.798Z,5.93
2018-10-07T15:00:12.253Z,6.43
2018-10-07T15:02:40.968Z,6.90
2018-10-07T15:05:09.493Z,5.17
2018-10-07T15:07:37.970Z,5.43
2018-10-07T15:10:06.835Z,5.17
2018-10-07T15:12:35.667Z,4.80
2018-10-07T15:15:04.458Z,4.63
2018-10-07T15:17:32.943Z,4.90
2018-10-07T15:20:01.380Z,4.40
2018-10-07T15:22:29.892Z,4.40
2018-10-07T15:24:58.331Z,5.37
2018-10-07T15:27:26.782Z,4.43
2018-10-07T15:29:55.291Z,3.90
2018-10-07T15:32:23.766Z,4.07
2018-10-07T15:34:52.273Z,4.10
2018-10-07T15:37:21.595Z,4.13
2018-10-07T15:39:50.072Z,4.27
2018-10-07T15:42:18.868Z,3.37
2018-10-07T15:44:47.299Z,4.20
2018-10-07T15:47:15.791Z,3.67
2018-10-07T15:49:44.643Z,4.00
2018-10-07T15:52:13.122Z,3.80
2018-10-07T15:54:41.581Z,3.40
2018-10-07T15:57:10.366Z,3.80
2018-10-07T15:59:38.783Z,4.20
2018-10-07T16:02:07.358Z,4.20
2018-10-07T16:04:36.102Z,3.63
2018-10-07T16:07:04.570Z,3.57
2018-10-07T16:09:33.256Z,3.40
2018-10-07T16:12:01.723Z,3.30
2018-10-07T16:14:30.155Z,2.90
2018-10-07T16:16:58.919Z,3.40
2018-10-07T16:19:27.622Z,3.57
2018-10-07T16:21:56.170Z,2.50
2018-10-07T16:24:24.699Z,3.40
2018-10-07T16:26:53.091Z,3.50
2018-10-07T16:29:21.795Z,3.30
2018-10-07T16:31:50.275Z,3.57
2018-10-07T16:34:18.746Z,2.50
2018-10-07T16:36:47.654Z,3.07
2018-10-07T16:39:16.415Z,2.63
2018-10-07T16:41:44.938Z,3.37
2018-10-07T16:44:13.402Z,3.03
2018-10-07T16:46:41.867Z,2.93
2018-10-07T16:49:10.722Z,2.90
2018-10-07T16:51:39.300Z,2.80
2018-10-07T16:54:07.720Z,2.57
2018-10-07T16:56:36.219Z,3.27
2018-10-07T16:59:04.709Z,2.93
2018-10-07T17:01:33.174Z,3.30
2018-10-07T17:04:01.647Z,5.47
2018-10-07T17:06:30.127Z,3.77
2018-10-07T17:08:58.882Z,3.83
2018-10-07T17:11:27.307Z,3.60
2018-10-07T17:13:55.750Z,3.10
2018-10-07T17:16:24.176Z,3.23
2018-10-07T17:18:52.942Z,3.97
2018-10-07T17:21:21.374Z,3.50
2018-10-07T17:23:49.855Z,3.10
2018-10-07T17:26:18.275Z,3.10
2018-10-07T17:28:47.054Z,3.30
2018-10-07T17:31:15.497Z,3.07
2018-10-07T17:33:43.959Z,3.73
2018-10-07T17:36:12.402Z,3.73
2018-10-07T17:38:40.889Z,4.00
2018-10-07T17:41:09.556Z,3.83
2018-10-07T17:43:37.983Z,4.00
2018-10-07T17:46:06.439Z,5.20
2018-10-07T17:48:34.928Z,6.20
2018-10-07T17:51:03.379Z,4.87
2018-10-07T17:53:31.915Z,4.40
2018-10-07T17:56:00.314Z,4.40
2018-10-07T17:58:28.766Z,4.70
2018-10-07T18:00:57.163Z,7.90
2018-10-07T18:03:25.635Z,6.10
2018-10-07T18:05:54.044Z,4.90
2018-10-07T18:08:22.478Z,6.60
2018-10-07T18:10:51.159Z,7.33
2018-10-07T18:13:19.819Z,5.80
2018-10-07T18:15:48.271Z,4.80
2018-10-07T18:18:16.714Z,4.30
2018-10-07T18:20:45.402Z,5.30
2018-10-07T18:23:13.838Z,4.70
2018-10-07T18:25:42.313Z,5.07
2018-10-07T18:28:10.741Z,5.50
2018-10-07T18:30:39.154Z,5.10
2018-10-07T18:33:07.969Z,5.50
2018-10-07T18:35:36.365Z,5.40
2018-10-07T18:38:05.279Z,4.20
2018-10-07T18:40:33.726Z,4.70
2018-10-07T18:43:02.513Z,4.70
2018-10-07T18:45:30.933Z,4.73
2018-10-07T18:47:59.353Z,5.60
2018-10-07T18:50:27.822Z,4.20
2018-10-07T18:52:56.564Z,4.00
2018-10-07T18:55:25.015Z,4.43
2018-10-07T18:57:53.565Z,4.10
2018-10-07T19:00:21.983Z,5.20
2018-10-07T19:02:50.608Z,4.77
2018-10-07T19:05:19.091Z,4.93
2018-10-07T19:07:47.749Z,5.10
2018-10-07T19:10:16.298Z,4.73
2018-10-07T19:12:45.383Z,4.07
2018-10-07T19:15:13.814Z,4.93
2018-10-07T19:17:42.234Z,4.30
2018-10-07T19:20:10.701Z,5.70
2018-10-07T19:22:39.150Z,5.07
2018-10-07T19:25:07.616Z,4.60
2018-10-07T19:27:36.179Z,4.93
2018-10-07T19:30:04.823Z,4.93
2018-10-07T19:32:33.538Z,5.23
2018-10-07T19:35:02.282Z,5.13
2018-10-07T19:37:30.892Z,4.90
2018-10-07T19:39:59.180Z,5.50
2018-10-07T19:42:27.867Z,6.03
2018-10-07T19:44:56.331Z,5.07
2018-10-07T19:47:24.734Z,5.30
2018-10-07T19:49:53.490Z,5.60
2018-10-07T19:52:21.979Z,5.63
2018-10-07T19:54:50.325Z,5.90
2018-10-07T19:57:18.798Z,6.17
2018-10-07T19:59:47.575Z,6.33
2018-10-07T20:02:15.988Z,6.70
2018-10-07T20:04:44.656Z,6.73
2018-10-07T20:07:13.119Z,7.60
2018-10-07T20:09:41.556Z,7.37
2018-10-07T20:12:10.078Z,7.83
2018-10-07T20:14:38.487Z,7.20
2018-10-07T20:17:07.223Z,8.50
2018-10-07T20:19:35.745Z,7.40
2018-10-07T20:22:05.428Z,7.60
2018-10-07T20:24:33.826Z,7.63
2018-10-07T20:27:02.303Z,8.43
2018-10-07T20:29:30.715Z,8.37
2018-10-07T20:31:59.150Z,8.33
2018-10-07T20:34:27.882Z,8.40
2018-10-07T20:36:56.390Z,8.20
2018-10-07T20:39:24.787Z,8.83
2018-10-07T20:41:53.284Z,8.27
2018-10-07T20:44:22.567Z,8.00
2018-10-07T20:46:51.363Z,8.50
2018-10-07T20:49:19.789Z,8.60
2018-10-07T20:51:48.403Z,8.30
2018-10-07T20:54:17.178Z,7.93
2018-10-07T20:56:45.744Z,7.70
2018-10-07T20:59:14.161Z,12.40
2018-10-07T21:01:42.601Z,10.40
2018-10-07T21:04:11.288Z,9.77
2018-10-07T21:06:39.748Z,10.87
2018-10-07T21:09:10.334Z,9.00
2018-10-07T21:11:39.122Z,9.30
2018-10-07T21:14:07.642Z,8.70
2018-10-07T21:16:36.113Z,8.90
2018-10-07T21:19:04.579Z,7.57
2018-10-07T21:21:33.063Z,8.57
2018-10-07T21:24:01.923Z,7.07
2018-10-07T21:26:30.717Z,7.93
2018-10-07T21:28:59.147Z,7.50
2018-10-07T21:31:27.839Z,8.70
2018-10-07T21:33:56.585Z,7.17
2018-10-07T21:36:25.339Z,8.10
2018-10-07T21:38:54.031Z,7.40
2018-10-07T21:41:22.809Z,7.97
2018-10-07T21:43:51.587Z,8.23
2018-10-07T21:46:20.043Z,8.17
2018-10-07T21:48:48.511Z,8.00
2018-10-07T21:51:16.964Z,7.20
2018-10-07T21:53:45.410Z,9.07
2018-10-07T21:56:13.872Z,10.03
2018-10-07T21:58:42.628Z,8.10
2018-10-07T22:01:11.083Z,6.57
2018-10-07T22:03:39.862Z,6.80
2018-10-07T22:06:08.346Z,7.33
2018-10-07T22:08:36.778Z,7.70
2018-10-07T22:11:05.546Z,6.70
2018-10-07T22:13:33.998Z,8.37
2018-10-07T22:16:02.437Z,9.17
2018-10-07T22:18:30.893Z,10.00
2018-10-07T22:20:59.351Z,9.83
2018-10-07T22:23:27.822Z,10.10
2018-10-07T22:25:56.632Z,11.87
2018-10-07T22:28:25.239Z,9.10
2018-10-07T22:30:54.040Z,10.30
2018-10-07T22:33:23.127Z,11.87
2018-10-07T22:35:51.723Z,13.20
2018-10-07T22:38:22.045Z,12.40
2018-10-07T22:40:52.250Z,16.33
2018-10-07T22:43:21.050Z,12.20
2018-10-07T22:45:49.847Z,10.53
2018-10-07T22:48:18.846Z,12.93
2018-10-07T22:50:47.546Z,11.53
2018-10-07T22:53:17.026Z,10.87
2018-10-07T22:55:45.714Z,11.70
2018-10-07T22:58:14.566Z,8.90
2018-10-07T23:00:43.066Z,8.90
2018-10-07T23:03:11.740Z,7.70
2018-10-07T23:05:40.192Z,7.50
2018-10-07T23:08:08.612Z,7.33
2018-10-07T23:10:37.166Z,7.40
2018-10-07T23:13:06.150Z,6.80
2018-10-07T23:15:34.623Z,7.83
2018-10-07T23:18:03.331Z,7.63
2018-10-07T23:20:32.031Z,6.70
2018-10-07T23:23:00.785Z,7.13
2018-10-07T23:25:29.218Z,6.70
2018-10-07T23:27:58.371Z,7.10
2018-10-07T23:30:26.827Z,7.73
2018-10-07T23:32:55.503Z,7.30
2018-10-07T23:35:24.251Z,7.00
2018-10-07T23:37:53.446Z,7.00
2018-10-07T23:40:21.964Z,6.70
2018-10-07T23:42:50.509Z,7.50
2018-10-07T23:45:19.210Z,7.37
2018-10-07T23:47:47.658Z,6.90
2018-10-07T23:50:16.110Z,7.20
2018-10-07T23:52:44.546Z,7.10
2018-10-07T23:55:12.990Z,7.97
2018-10-07T23:57:41.415Z,6.60
